createdAt,value
2022-12-31T00:01:37.189Z,4.09
2022-12-31T00:04:15.085Z,3.92
2022-12-31T00:06:46.181Z,3.98
2022-12-31T00:09:23.150Z,4.08
2022-12-31T00:11:52.808Z,3.78
2022-12-31T00:14:24.840Z,3.95
2022-12-31T00:16:54.292Z,4.10
2022-12-31T00:19:23.322Z,4.11
2022-12-31T00:21:52.585Z,4.01
2022-12-31T00:24:21.320Z,4.12
2022-12-31T00:26:52.307Z,3.83
2022-12-31T00:29:23.220Z,3.89
2022-12-31T00:31:52.374Z,3.84
2022-12-31T00:34:26.534Z,3.91
2022-12-31T00:36:55.080Z,3.87
2022-12-31T00:39:33.856Z,4.03
2022-12-31T00:42:05.588Z,4.11
2022-12-31T00:44:38.921Z,4.15
2022-12-31T00:47:25.020Z,4.19
2022-12-31T00:49:55.708Z,4.22
2022-12-31T00:52:32.933Z,4.24
2022-12-31T00:55:02.503Z,3.91
2022-12-31T00:57:34.715Z,4.01
2022-12-31T01:00:09.395Z,3.85
2022-12-31T01:02:38.798Z,3.94
2022-12-31T01:05:09.294Z,4.11
2022-12-31T01:07:39.648Z,4.01
2022-12-31T01:10:12.360Z,4.05
2022-12-31T01:12:45.763Z,4.13
2022-12-31T01:15:25.428Z,4.20
2022-12-31T01:18:01.695Z,4.02
2022-12-31T01:20:30.403Z,3.91
2022-12-31T01:23:04.079Z,3.84
2022-12-31T01:25:39.470Z,3.85
2022-12-31T01:28:08.284Z,3.77
2022-12-31T01:30:41.716Z,3.93
2022-12-31T01:33:15.879Z,4.11
2022-12-31T01:35:45.445Z,3.99
2022-12-31T01:38:13.921Z,3.90
2022-12-31T01:40:44.008Z,4.02
2022-12-31T01:43:20.013Z,3.76
2022-12-31T01:45:57.110Z,3.91
2022-12-31T01:48:28.580Z,4.05
2022-12-31T01:51:02.838Z,4.18
2022-12-31T01:53:32.542Z,4.16
2022-12-31T01:56:18.179Z,3.91
2022-12-31T01:58:58.741Z,4.03
2022-12-31T02:01:41.211Z,4.02
2022-12-31T02:04:14.589Z,4.06
2022-12-31T02:06:48.726Z,3.99
2022-12-31T02:09:25.741Z,4.04
2022-12-31T02:12:06.565Z,4.10
2022-12-31T02:14:40.316Z,4.21
2022-12-31T02:17:37.815Z,3.98
2022-12-31T02:20:48.495Z,3.95
2022-12-31T02:24:08.413Z,3.92
2022-12-31T02:27:01.094Z,3.90
2022-12-31T02:30:09.533Z,3.85
2022-12-31T02:33:08.264Z,3.82
2022-12-31T02:35:49.773Z,4.05
2022-12-31T02:38:24.693Z,4.11
2022-12-31T02:40:55.219Z,4.02
2022-12-31T02:43:25.021Z,3.98
2022-12-31T02:46:07.068Z,3.87
2022-12-31T02:48:44.471Z,3.96
2022-12-31T02:51:22.774Z,3.94
2022-12-31T02:54:08.464Z,4.04
2022-12-31T02:56:48.517Z,4.16
2022-12-31T02:59:43.164Z,4.22
2022-12-31T03:02:18.934Z,4.12
2022-12-31T03:04:55.734Z,3.99
2022-12-31T03:07:40.882Z,4.07
2022-12-31T03:10:13.113Z,3.97
2022-12-31T03:12:50.233Z,4.00
2022-12-31T03:15:21.996Z,4.23
2022-12-31T03:18:00.125Z,4.11
2022-12-31T03:20:53.880Z,4.13
2022-12-31T03:23:25.792Z,4.38
2022-12-31T03:25:57.450Z,4.26
2022-12-31T03:28:36.256Z,4.15
2022-12-31T03:31:30.913Z,4.17
2022-12-31T03:34:08.370Z,4.08
2022-12-31T03:36:40.216Z,4.13
2022-12-31T03:39:14.417Z,4.19
2022-12-31T03:41:46.181Z,4.25
2022-12-31T03:44:15.708Z,4.29
2022-12-31T03:46:58.689Z,4.44
2022-12-31T03:49:27.098Z,4.21
2022-12-31T03:51:56.933Z,4.43
2022-12-31T03:54:27.000Z,4.21
2022-12-31T03:57:00.296Z,4.14
2022-12-31T03:59:33.297Z,4.30
2022-12-31T04:02:01.744Z,4.29
2022-12-31T04:04:33.530Z,4.31
2022-12-31T04:07:08.482Z,4.38
2022-12-31T04:09:40.874Z,4.39
2022-12-31T04:12:14.806Z,4.40
2022-12-31T04:14:46.863Z,4.38
2022-12-31T04:17:19.479Z,4.29
2022-12-31T04:19:56.700Z,4.21
2022-12-31T04:22:28.672Z,4.06
2022-12-31T04:25:00.455Z,4.09
2022-12-31T04:27:32.186Z,3.93
2022-12-31T04:30:01.503Z,4.14
2022-12-31T04:32:39.154Z,4.11
2022-12-31T04:35:08.803Z,3.94
2022-12-31T04:37:53.629Z,4.10
2022-12-31T04:40:30.033Z,3.84
2022-12-31T04:43:00.822Z,3.90
2022-12-31T04:45:35.630Z,3.99
2022-12-31T04:48:11.814Z,4.06
2022-12-31T04:50:43.447Z,4.03
2022-12-31T04:53:19.073Z,4.00
2022-12-31T04:55:52.127Z,4.14
2022-12-31T04:58:23.438Z,4.10
2022-12-31T05:00:54.720Z,4.02
2022-12-31T05:03:26.285Z,4.04
2022-12-31T05:06:02.862Z,4.13
2022-12-31T05:08:40.948Z,4.06
2022-12-31T05:11:14.502Z,3.89
2022-12-31T05:13:47.727Z,4.18
2022-12-31T05:16:20.093Z,4.13
2022-12-31T05:18:50.001Z,4.00
2022-12-31T05:21:21.979Z,4.11
2022-12-31T05:24:01.226Z,4.07
2022-12-31T05:26:33.220Z,4.02
2022-12-31T05:29:01.722Z,4.11
2022-12-31T05:31:33.530Z,4.21
2022-12-31T05:34:09.584Z,4.12
2022-12-31T05:36:42.110Z,4.22
2022-12-31T05:39:20.358Z,4.22
2022-12-31T05:41:54.192Z,4.17
2022-12-31T05:44:25.718Z,4.03
2022-12-31T05:46:55.322Z,4.06
2022-12-31T05:49:23.907Z,4.04
2022-12-31T05:51:55.356Z,4.10
2022-12-31T05:54:27.235Z,4.01
2022-12-31T05:56:57.503Z,4.20
2022-12-31T05:59:26.016Z,4.04
2022-12-31T06:01:57.062Z,4.12
2022-12-31T06:04:30.469Z,4.43
2022-12-31T06:06:59.507Z,4.26
2022-12-31T06:09:36.512Z,4.22
2022-12-31T06:12:15.233Z,4.28
2022-12-31T06:14:54.624Z,4.40
2022-12-31T06:17:23.575Z,4.33
2022-12-31T06:19:55.317Z,4.31
2022-12-31T06:22:24.106Z,4.19
2022-12-31T06:24:55.492Z,4.32
2022-12-31T06:27:34.925Z,4.34
2022-12-31T06:30:11.666Z,4.27
2022-12-31T06:32:40.842Z,4.32
2022-12-31T06:35:10.471Z,4.35
2022-12-31T06:37:40.986Z,4.32
2022-12-31T06:40:26.249Z,4.33
2022-12-31T06:43:02.078Z,4.51
2022-12-31T06:45:31.902Z,4.43
2022-12-31T06:48:09.091Z,4.59
2022-12-31T06:50:38.836Z,4.43
2022-12-31T06:53:08.546Z,4.63
2022-12-31T06:55:54.183Z,4.52
2022-12-31T06:58:31.904Z,4.63
2022-12-31T07:01:19.490Z,4.60
2022-12-31T07:04:00.996Z,4.58
2022-12-31T07:06:36.701Z,4.66
2022-12-31T07:09:13.527Z,4.61
2022-12-31T07:11:53.159Z,4.71
2022-12-31T07:14:31.709Z,4.64
2022-12-31T07:17:08.948Z,4.64
2022-12-31T07:19:57.709Z,4.81
2022-12-31T07:22:31.456Z,4.67
2022-12-31T07:25:07.148Z,4.75
2022-12-31T07:27:54.967Z,4.82
2022-12-31T07:30:28.987Z,5.02
2022-12-31T07:33:33.395Z,4.89
2022-12-31T07:36:23.262Z,4.87
2022-12-31T07:38:55.527Z,4.82
2022-12-31T07:41:38.459Z,4.90
2022-12-31T07:44:22.834Z,4.91
2022-12-31T07:46:59.205Z,4.82
2022-12-31T07:49:30.940Z,4.86
2022-12-31T07:52:04.392Z,4.93
2022-12-31T07:54:33.716Z,4.93
2022-12-31T07:57:14.624Z,4.79
2022-12-31T08:00:05.314Z,4.94
2022-12-31T08:03:07.005Z,4.92
2022-12-31T08:05:46.014Z,5.21
2022-12-31T08:08:34.980Z,5.04
2022-12-31T08:11:15.264Z,5.07
2022-12-31T08:13:46.520Z,5.17
2022-12-31T08:16:19.682Z,5.20
2022-12-31T08:18:59.654Z,5.25
2022-12-31T08:21:42.757Z,5.34
2022-12-31T08:24:19.748Z,5.21
2022-12-31T08:26:56.456Z,5.31
2022-12-31T08:29:41.078Z,5.34
2022-12-31T08:32:41.670Z,5.55
2022-12-31T08:35:23.222Z,5.55
2022-12-31T08:37:59.620Z,5.44
2022-12-31T08:40:35.496Z,5.37
2022-12-31T08:43:28.898Z,5.58
2022-12-31T08:46:04.564Z,5.65
2022-12-31T08:48:44.280Z,5.68
2022-12-31T08:51:16.613Z,5.72
2022-12-31T08:53:48.374Z,5.69
2022-12-31T08:56:26.387Z,5.82
2022-12-31T08:59:10.251Z,5.67
2022-12-31T09:01:50.364Z,5.69
2022-12-31T09:04:30.045Z,5.73
2022-12-31T09:07:12.100Z,5.79
2022-12-31T09:09:56.822Z,5.77
2022-12-31T09:12:32.188Z,5.83
2022-12-31T09:15:11.534Z,5.76
2022-12-31T09:17:50.459Z,5.93
2022-12-31T09:20:42.454Z,5.72
2022-12-31T09:23:19.547Z,5.85
2022-12-31T09:26:00.047Z,5.87
2022-12-31T09:28:38.886Z,5.86
2022-12-31T09:31:14.762Z,5.81
2022-12-31T09:33:52.916Z,5.86
2022-12-31T09:36:31.327Z,5.86
2022-12-31T09:39:12.364Z,5.89
2022-12-31T09:42:26.984Z,5.91
2022-12-31T09:45:23.804Z,5.90
2022-12-31T09:48:12.138Z,6.04
2022-12-31T09:51:04.215Z,5.96
2022-12-31T09:54:25.389Z,5.93
2022-12-31T09:57:14.098Z,5.94
2022-12-31T09:59:49.499Z,6.11
2022-12-31T10:02:31.200Z,6.16
2022-12-31T10:05:21.273Z,6.17
2022-12-31T10:07:57.556Z,6.13
2022-12-31T10:10:46.036Z,6.18
2022-12-31T10:13:47.130Z,6.24
2022-12-31T10:16:42.190Z,6.17
2022-12-31T10:19:35.116Z,6.17
2022-12-31T10:22:15.479Z,6.29
2022-12-31T10:25:01.891Z,6.17
2022-12-31T10:27:48.403Z,6.33
2022-12-31T10:30:26.967Z,6.45
2022-12-31T10:33:10.978Z,6.42
2022-12-31T10:35:54.243Z,6.57
2022-12-31T10:38:28.651Z,6.50
2022-12-31T10:41:44.408Z,6.61
2022-12-31T10:44:53.962Z,6.60
2022-12-31T10:48:12.235Z,6.65
2022-12-31T10:51:22.647Z,6.57
2022-12-31T10:54:30.844Z,6.75
2022-12-31T10:57:57.395Z,6.65
2022-12-31T11:00:31.483Z,6.70
2022-12-31T11:03:39.779Z,6.70
2022-12-31T11:07:01.362Z,6.87
2022-12-31T11:09:55.619Z,7.03
2022-12-31T11:13:07.439Z,7.11
2022-12-31T11:15:50.483Z,7.09
2022-12-31T11:18:27.194Z,7.13
2022-12-31T11:21:12.091Z,7.13
2022-12-31T11:23:46.105Z,7.21
2022-12-31T11:26:26.331Z,7.25
2022-12-31T11:29:11.314Z,7.28
2022-12-31T11:31:55.387Z,7.35
2022-12-31T11:35:05.715Z,7.35
2022-12-31T11:37:46.367Z,7.28
2022-12-31T11:40:48.458Z,7.28
2022-12-31T11:43:40.675Z,7.40
2022-12-31T11:46:53.673Z,7.29
2022-12-31T11:49:44.604Z,7.35
2022-12-31T11:52:41.304Z,7.35
2022-12-31T11:55:35.216Z,7.43
2022-12-31T11:58:18.025Z,7.46
2022-12-31T12:01:12.832Z,7.56
2022-12-31T12:03:47.779Z,7.65
2022-12-31T12:06:24.126Z,7.61
2022-12-31T12:08:59.442Z,7.57
2022-12-31T12:11:31.497Z,7.69
2022-12-31T12:14:00.547Z,7.69
2022-12-31T12:16:32.097Z,7.65
2022-12-31T12:19:20.158Z,7.61
2022-12-31T12:21:50.370Z,7.76
2022-12-31T12:24:22.552Z,7.77
2022-12-31T12:26:51.830Z,7.83
2022-12-31T12:29:25.186Z,7.87
2022-12-31T12:32:05.765Z,7.83
2022-12-31T12:34:36.497Z,7.80
2022-12-31T12:37:11.529Z,7.84
2022-12-31T12:39:41.100Z,7.74
2022-12-31T12:42:18.387Z,7.81
2022-12-31T12:44:47.198Z,7.80
2022-12-31T12:47:29.510Z,7.85
2022-12-31T12:50:00.622Z,7.90
2022-12-31T12:53:12.467Z,7.83
2022-12-31T12:55:56.191Z,7.75
2022-12-31T12:58:36.788Z,7.82
2022-12-31T13:01:11.955Z,7.70
2022-12-31T13:07:12.300Z,7.68
2022-12-31T13:09:54.172Z,7.70
2022-12-31T13:12:28.230Z,7.73
2022-12-31T13:15:06.127Z,7.74
2022-12-31T13:18:01.946Z,7.78
2022-12-31T13:20:45.383Z,7.86
2022-12-31T13:23:21.691Z,7.87
2022-12-31T13:26:08.798Z,7.80
2022-12-31T13:28:43.660Z,7.82
2022-12-31T13:31:26.370Z,7.80
2022-12-31T13:34:00.190Z,7.79
2022-12-31T13:36:36.060Z,7.80
2022-12-31T13:39:11.878Z,7.80
2022-12-31T13:41:45.022Z,7.71
2022-12-31T13:44:18.123Z,7.83
2022-12-31T13:46:51.930Z,7.68
2022-12-31T13:49:32.064Z,7.56
2022-12-31T13:52:15.156Z,7.75
2022-12-31T13:54:49.331Z,7.60
2022-12-31T13:57:26.327Z,7.70
2022-12-31T13:59:59.138Z,7.77
2022-12-31T14:02:36.683Z,7.74
2022-12-31T14:05:17.508Z,7.72
2022-12-31T14:08:02.424Z,7.81
2022-12-31T14:10:45.357Z,7.84
2022-12-31T14:13:41.993Z,7.66
2022-12-31T14:16:22.388Z,7.61
2022-12-31T14:19:03.620Z,7.55
2022-12-31T14:21:40.358Z,7.62
2022-12-31T14:24:27.284Z,7.69
2022-12-31T14:27:05.429Z,7.62
2022-12-31T14:29:39.759Z,7.71
2022-12-31T14:32:35.431Z,7.71
2022-12-31T14:35:30.166Z,7.69
2022-12-31T14:38:04.606Z,7.69
2022-12-31T14:40:50.217Z,7.81
2022-12-31T14:43:27.289Z,7.80
2022-12-31T14:46:11.295Z,7.89
2022-12-31T14:48:52.683Z,7.86
2022-12-31T14:51:23.464Z,7.79
2022-12-31T14:53:57.115Z,7.83
2022-12-31T14:56:47.668Z,7.76
2022-12-31T14:59:40.426Z,7.75
2022-12-31T15:02:34.700Z,7.72
2022-12-31T15:05:32.062Z,7.79
2022-12-31T15:08:23.442Z,7.90
2022-12-31T15:11:14.689Z,7.80
2022-12-31T15:14:37.577Z,7.67
2022-12-31T15:17:21.328Z,7.72
2022-12-31T15:20:39.280Z,7.86
2022-12-31T15:23:14.962Z,7.80
2022-12-31T15:25:51.379Z,7.73
2022-12-31T15:28:34.442Z,7.64
2022-12-31T15:31:25.523Z,7.71
2022-12-31T15:34:03.961Z,7.67
2022-12-31T15:36:38.657Z,7.69
2022-12-31T15:39:40.922Z,7.67
2022-12-31T15:42:50.011Z,7.65
2022-12-31T15:45:32.728Z,7.73
2022-12-31T15:48:04.776Z,7.88
2022-12-31T15:50:39.832Z,7.84
2022-12-31T15:53:09.604Z,7.77
2022-12-31T15:55:46.642Z,7.74
2022-12-31T15:58:22.038Z,7.73
2022-12-31T16:01:01.402Z,7.71
2022-12-31T16:03:37.139Z,7.70
2022-12-31T16:06:13.019Z,7.69
2022-12-31T16:08:46.073Z,7.71
2022-12-31T16:11:24.278Z,7.70
2022-12-31T16:14:00.534Z,7.70
2022-12-31T16:16:31.523Z,7.78
2022-12-31T16:19:33.901Z,7.80
2022-12-31T16:22:09.003Z,7.84
2022-12-31T16:24:48.885Z,7.85
2022-12-31T16:27:38.629Z,7.86
2022-12-31T16:30:19.855Z,7.84
2022-12-31T16:32:51.980Z,7.92
2022-12-31T16:35:34.776Z,7.87
2022-12-31T16:38:12.295Z,7.85
2022-12-31T16:40:45.605Z,7.83
2022-12-31T16:43:27.663Z,7.77
2022-12-31T16:46:08.498Z,7.76
2022-12-31T16:48:37.703Z,7.80
2022-12-31T16:51:20.101Z,7.72
2022-12-31T16:53:49.477Z,7.77
2022-12-31T16:56:33.462Z,7.82
2022-12-31T16:59:07.444Z,7.83
2022-12-31T17:01:38.680Z,7.81
2022-12-31T17:04:11.041Z,7.69
2022-12-31T17:06:46.713Z,7.64
2022-12-31T17:09:24.517Z,7.72
2022-12-31T17:11:57.363Z,7.70
2022-12-31T17:14:38.172Z,7.68
2022-12-31T17:17:12.129Z,7.67
2022-12-31T17:19:42.962Z,7.70
2022-12-31T17:22:36.489Z,7.70
2022-12-31T17:25:10.988Z,7.68
2022-12-31T17:27:49.031Z,7.64
2022-12-31T17:30:26.000Z,7.63
2022-12-31T17:33:08.323Z,7.62
2022-12-31T17:35:45.789Z,7.59
2022-12-31T17:38:44.237Z,7.51
2022-12-31T17:41:25.652Z,7.51
2022-12-31T17:44:05.806Z,7.50
2022-12-31T17:46:42.489Z,7.55
2022-12-31T17:49:22.180Z,7.69
2022-12-31T17:51:52.840Z,7.69
2022-12-31T17:54:33.181Z,7.60
2022-12-31T17:57:03.824Z,7.46
2022-12-31T17:59:41.776Z,7.51
2022-12-31T18:02:25.429Z,7.51
2022-12-31T18:04:55.594Z,7.52
2022-12-31T18:07:34.116Z,7.51
2022-12-31T18:10:17.639Z,7.49
2022-12-31T18:12:48.400Z,7.55
2022-12-31T18:15:21.322Z,7.58
2022-12-31T18:17:53.065Z,7.53
2022-12-31T18:20:26.717Z,7.46
2022-12-31T18:22:58.606Z,7.48
2022-12-31T18:25:30.839Z,7.40
2022-12-31T18:27:59.685Z,7.43
2022-12-31T18:30:31.287Z,7.36
2022-12-31T18:33:08.561Z,7.36
2022-12-31T18:36:07.643Z,7.30
2022-12-31T18:38:27.866Z,7.31
2022-12-31T18:41:09.036Z,7.33
2022-12-31T18:43:39.760Z,7.34
2022-12-31T18:46:12.458Z,7.33
2022-12-31T18:48:43.766Z,7.32
2022-12-31T18:51:31.455Z,7.35
2022-12-31T18:54:10.077Z,7.36
2022-12-31T18:56:49.248Z,7.29
2022-12-31T18:59:23.138Z,7.23
2022-12-31T19:01:51.692Z,7.28
2022-12-31T19:04:31.678Z,7.42
2022-12-31T19:07:06.056Z,7.45
2022-12-31T19:09:46.018Z,7.46
2022-12-31T19:12:20.987Z,7.57
2022-12-31T19:14:51.753Z,7.50
2022-12-31T19:17:24.029Z,7.44
2022-12-31T19:20:00.498Z,7.47
2022-12-31T19:22:32.670Z,7.45
2022-12-31T19:25:04.784Z,7.46
2022-12-31T19:27:40.260Z,7.52
2022-12-31T19:30:15.107Z,7.45
2022-12-31T19:32:45.663Z,7.36
2022-12-31T19:35:21.880Z,7.32
2022-12-31T19:37:54.729Z,7.48
2022-12-31T19:40:28.234Z,7.45
2022-12-31T19:42:59.740Z,7.43
2022-12-31T19:45:32.099Z,7.45
2022-12-31T19:48:00.857Z,7.34
2022-12-31T19:50:33.048Z,7.32
2022-12-31T19:53:01.994Z,7.42
2022-12-31T19:55:33.796Z,7.31
2022-12-31T19:58:13.659Z,7.28
2022-12-31T20:00:56.768Z,7.21
2022-12-31T20:03:28.074Z,7.26
2022-12-31T20:06:09.763Z,7.17
2022-12-31T20:08:43.487Z,7.22
2022-12-31T20:11:16.699Z,7.20
2022-12-31T20:13:52.805Z,7.19
2022-12-31T20:16:24.549Z,7.25
2022-12-31T20:18:53.784Z,7.23
2022-12-31T20:21:32.384Z,7.23
2022-12-31T20:24:04.489Z,7.14
2022-12-31T20:26:38.708Z,7.23
2022-12-31T20:29:15.690Z,7.19
2022-12-31T20:31:50.025Z,7.10
2022-12-31T20:34:23.941Z,7.10
2022-12-31T20:36:54.902Z,7.13
2022-12-31T20:39:29.334Z,7.07
2022-12-31T20:42:03.223Z,7.08
2022-12-31T20:44:35.478Z,7.04
2022-12-31T20:47:07.511Z,6.95
2022-12-31T20:50:09.795Z,6.98
2022-12-31T20:52:27.986Z,6.98
2022-12-31T20:55:03.122Z,6.92
2022-12-31T20:57:34.284Z,6.92
2022-12-31T21:00:14.709Z,6.90
2022-12-31T21:02:53.131Z,7.02
2022-12-31T21:05:29.455Z,6.87
2022-12-31T21:07:59.552Z,6.80
2022-12-31T21:10:28.218Z,6.84
2022-12-31T21:12:59.083Z,6.93
2022-12-31T21:15:35.938Z,6.90
2022-12-31T21:18:13.048Z,6.91
2022-12-31T21:20:54.047Z,6.91
2022-12-31T21:23:22.830Z,6.89
2022-12-31T21:25:54.983Z,6.84
2022-12-31T21:28:26.463Z,6.94
2022-12-31T21:31:02.581Z,6.94
2022-12-31T21:33:31.134Z,6.97
2022-12-31T21:36:14.502Z,6.94
2022-12-31T21:38:45.343Z,7.00
2022-12-31T21:41:44.165Z,6.90
2022-12-31T21:44:15.463Z,6.93
2022-12-31T21:47:24.811Z,6.98
2022-12-31T21:49:39.787Z,6.92
2022-12-31T21:52:27.726Z,6.94
2022-12-31T21:55:18.411Z,6.90
2022-12-31T22:01:04.448Z,6.83
2022-12-31T22:03:36.937Z,6.84
2022-12-31T22:06:21.515Z,6.79
2022-12-31T22:09:00.978Z,6.75
2022-12-31T22:11:30.295Z,6.81
2022-12-31T22:14:04.326Z,6.76
2022-12-31T22:16:36.046Z,6.69
2022-12-31T22:19:14.755Z,6.77
2022-12-31T22:21:53.161Z,6.62
2022-12-31T22:24:21.853Z,6.65
2022-12-31T22:26:54.151Z,6.60
2022-12-31T22:29:28.389Z,6.55
2022-12-31T22:32:01.154Z,6.54
2022-12-31T22:34:42.884Z,6.55
2022-12-31T22:37:55.120Z,6.47
2022-12-31T22:40:12.085Z,6.55
2022-12-31T22:42:48.907Z,6.49
2022-12-31T22:45:23.530Z,6.65
2022-12-31T22:47:52.086Z,6.54
2022-12-31T22:50:27.116Z,6.30
2022-12-31T22:52:55.867Z,6.36
2022-12-31T22:55:28.727Z,6.44
2022-12-31T22:58:01.025Z,6.43
2022-12-31T23:00:42.432Z,6.39
2022-12-31T23:03:22.621Z,6.33
2022-12-31T23:05:54.115Z,6.34
2022-12-31T23:08:24.172Z,6.48
2022-12-31T23:11:01.904Z,6.47
2022-12-31T23:13:55.718Z,6.43
2022-12-31T23:16:44.279Z,6.42
2022-12-31T23:19:32.013Z,6.38
2022-12-31T23:22:24.840Z,6.33
2022-12-31T23:24:55.728Z,6.32
2022-12-31T23:27:27.258Z,6.52
2022-12-31T23:29:58.671Z,6.49
2022-12-31T23:32:31.734Z,6.50
2022-12-31T23:35:09.415Z,6.63
2022-12-31T23:37:41.928Z,6.55
2022-12-31T23:40:22.230Z,6.53
2022-12-31T23:42:51.859Z,6.55
2022-12-31T23:45:31.139Z,6.55
2022-12-31T23:48:10.245Z,6.41
2022-12-31T23:50:41.754Z,6.36
2022-12-31T23:53:23.673Z,6.24
2022-12-31T23:56:11.348Z,6.23
2022-12-31T23:58:42.031Z,6.17
